KASX/ASX METAR and TAF weather

Enter ICAO airport designator
Station Type Date Time Source
KASX METAR 2020/10/20 16:53 UTC NOAA

KASX 201653Z AUTO 13007KT 10SM BKN050 03/M05 A3027 RMK AO2 SLP262 T00281050


Station Type Date Time Source
KASX Decoded METAR 2020/10/20 16:53 UTC NOAA

ASHLAND KENNEDY MEMORIAL, WI, United States (KASX) 46-33N 090-55W 251M
Oct 20, 2020 - 12:53 PM EDT / 2020.10.20 1653 UTC
Wind: from the SE (130 degrees) at 8 MPH (7 KT):0
Visibility: 10 mile(s):0
Sky conditions: mostly cloudy
Temperature: 37.0 F (2.8 C)
Dew Point: 23.0 F (-5.0 C)
Relative Humidity: 56%
Pressure (altimeter): 30.27 in. Hg (1025 hPa)
ob: KASX 201653Z AUTO 13007KT 10SM BKN050 03/M05 A3027 RMK AO2 SLP262 T00281050
cycle: 17

Station Type Date Time Source
KASX TAF UTC NOAA

Error!

Example: see airport list